Time;durP1;ratioP1;P1;durP2;ratioP2;P2;SDS_P1;SDS_P2;PMS_P1;PMS_P2;Temp;Humidity;BMP_temperature;BMP_pressure;BME280_temperature;BME280_humidity;BME280_pressure;Samples;Min_cycle;Max_cycle;Signal;HPM_P1;HPM_P2
2022/06/04 00:00:24;;;;;;;12.30;5.90;;;;;;;10.50;100.00;155163.44;4950048;28;20449;-77
2022/06/04 00:02:50;;;;;;;12.05;5.82;;;;;;;10.48;100.00;155159.56;4969995;28;20053;-77
2022/06/04 00:05:25;;;;;;;8.68;5.88;;;;;;;10.40;100.00;155137.78;4951779;28;20042;-78
2022/06/04 00:07:51;;;;;;;11.88;5.90;;;;;;;10.44;100.00;155149.31;4968114;28;20073;-76
2022/06/04 00:15:55;;;;;;;11.90;6.85;;;;;;;10.38;100.00;155132.63;4966798;28;20062;-77
2022/06/04 00:18:22;;;;;;;11.43;6.45;;;;;;;10.38;100.00;155132.63;4935803;28;20043;-76
2022/06/04 00:20:51;;;;;;;11.85;6.25;;;;;;;10.41;100.00;155140.34;4926342;28;20143;-76
2022/06/04 00:23:20;;;;;;;16.15;6.47;;;;;;;10.32;100.00;155118.50;4938269;28;20109;-77
2022/06/04 00:25:50;;;;;;;13.82;6.25;;;;;;;10.38;100.00;155132.63;4972322;28;20182;-77
2022/06/04 00:28:17;;;;;;;8.98;6.50;;;;;;;10.42;100.00;155144.19;4949558;28;20047;-77
2022/06/04 00:30:44;;;;;;;11.13;6.22;;;;;;;10.47;100.00;155155.72;4975239;28;20114;-78
2022/06/04 00:33:11;;;;;;;10.38;5.90;;;;;;;10.48;100.00;155158.31;4943272;28;20045;-76
2022/06/04 00:35:37;;;;;;;12.98;5.80;;;;;;;10.29;100.00;155110.78;4959217;28;20054;-77
2022/06/04 00:38:05;;;;;;;16.23;7.38;;;;;;;10.27;100.00;155106.94;4958607;28;20109;-77
2022/06/04 00:40:39;;;;;;;8.45;5.82;;;;;;;10.28;100.00;155109.53;4978258;28;20142;-79
2022/06/04 00:43:04;;;;;;;11.63;6.32;;;;;;;10.21;100.00;155090.22;4950645;28;20038;-77
2022/06/04 00:45:36;;;;;;;12.90;6.38;;;;;;;10.14;100.00;155073.59;4968712;28;20038;-77
2022/06/04 00:48:10;;;;;;;8.23;5.72;;;;;;;10.11;100.00;155067.19;4965778;28;20034;-78
2022/06/04 00:50:40;;;;;;;9.18;6.28;;;;;;;10.06;100.00;155054.34;4961962;28;20038;-79
2022/06/04 00:53:09;;;;;;;11.45;6.05;;;;;;;10.11;100.00;155065.88;4930824;28;20391;-77
2022/06/04 00:55:57;;;;;;;8.98;6.28;;;;;;;10.04;100.00;155049.22;4968794;28;20043;-77
2022/06/04 00:58:35;;;;;;;14.07;6.07;;;;;;;10.01;100.00;155040.25;4951435;28;20069;-78
2022/06/04 01:01:18;;;;;;;13.13;6.30;;;;;;;9.97;100.00;155031.25;4947604;28;20039;-78
2022/06/04 01:04:10;;;;;;;14.10;6.80;;;;;;;10.03;100.00;155046.63;4971170;28;20043;-78
2022/06/04 01:06:39;;;;;;;12.07;7.30;;;;;;;10.05;100.00;155050.50;4947866;28;20409;-78
2022/06/04 01:09:41;;;;;;;12.32;7.00;;;;;;;10.03;100.00;155045.38;4960438;28;20030;-77
2022/06/04 01:12:16;;;;;;;10.60;7.15;;;;;;;10.02;100.00;155044.09;4950670;28;20053;-77
2022/06/04 01:15:05;;;;;;;12.43;7.32;;;;;;;10.03;100.00;155045.38;4972437;28;20034;-78
2022/06/04 01:17:46;;;;;;;10.30;6.88;;;;;;;10.05;100.00;155050.50;4917337;28;20524;-77
2022/06/04 01:20:27;;;;;;;12.48;7.00;;;;;;;9.96;100.00;155027.41;4972143;28;20034;-76
2022/06/04 01:23:11;;;;;;;13.40;7.25;;;;;;;10.05;100.00;155051.75;4965714;28;20031;-77
2022/06/04 01:25:39;;;;;;;10.55;7.40;;;;;;;9.95;100.00;155026.13;4952845;28;20489;-79
2022/06/04 01:28:07;;;;;;;12.70;7.47;;;;;;;9.98;100.00;155033.81;4951527;28;20043;-77
2022/06/04 01:30:39;;;;;;;11.60;7.30;;;;;;;9.93;100.00;155022.28;4973838;28;20038;-78
2022/06/04 01:33:14;;;;;;;12.65;7.80;;;;;;;9.94;100.00;155024.88;4949013;28;20039;-77
2022/06/04 01:35:46;;;;;;;10.70;7.53;;;;;;;9.84;100.00;154997.94;4977572;28;20069;-78
2022/06/04 01:38:36;;;;;;;12.43;7.78;;;;;;;9.82;100.00;154992.81;4976497;28;20026;-78
2022/06/04 01:41:25;;;;;;;11.68;7.20;;;;;;;9.66;100.00;154953.03;4969526;28;20341;-77
2022/06/04 01:43:53;;;;;;;12.48;8.00;;;;;;;9.59;100.00;154935.06;4936604;28;20457;-79
2022/06/04 01:46:29;;;;;;;17.50;7.57;;;;;;;9.53;100.00;154922.28;4948961;28;20042;-78
2022/06/04 01:49:04;;;;;;;16.27;7.82;;;;;;;9.41;100.00;154890.22;4976105;28;20493;-78
2022/06/04 01:51:33;;;;;;;12.85;7.53;;;;;;;9.31;100.00;154867.13;4969544;28;20400;-79
2022/06/04 01:54:03;;;;;;;16.35;8.68;;;;;;;9.39;100.00;154885.09;4971530;28;20046;-79
2022/06/04 01:56:35;;;;;;;12.00;7.47;;;;;;;9.26;100.00;154854.31;4949450;28;20074;-78
2022/06/04 01:59:24;;;;;;;14.82;7.57;;;;;;;9.22;100.00;154844.06;4957944;28;20038;-78
2022/06/04 02:01:52;;;;;;;17.13;9.48;;;;;;;9.19;100.00;154836.34;4959206;28;20070;-78
2022/06/04 02:04:26;;;;;;;14.52;8.80;;;;;;;9.03;100.00;154796.63;4941970;28;20114;-78
2022/06/04 02:09:50;;;;;;;13.10;8.70;;;;;;;9.06;100.00;154804.34;4973628;28;20034;-77
2022/06/04 02:12:16;;;;;;;17.95;8.90;;;;;;;9.00;100.00;154787.66;4967576;28;20067;-78
2022/06/04 02:14:43;;;;;;;17.85;8.43;;;;;;;8.87;100.00;154756.94;4937593;28;20069;-78
2022/06/04 02:17:14;;;;;;;12.70;8.85;;;;;;;8.93;100.00;154772.28;4952223;28;20035;-79
2022/06/04 02:19:40;;;;;;;13.10;8.50;;;;;;;8.87;100.00;154755.63;4938489;28;20485;-77
2022/06/04 02:22:07;;;;;;;18.58;9.45;;;;;;;8.90;100.00;154764.59;4973685;28;20390;-77
2022/06/04 02:24:33;;;;;;;15.85;9.73;;;;;;;8.83;100.00;154746.66;4926509;28;20079;-78
2022/06/04 02:27:01;;;;;;;12.95;8.70;;;;;;;8.83;100.00;154745.38;4975877;28;20489;-80
2022/06/04 02:29:27;;;;;;;13.50;9.55;;;;;;;8.79;100.00;154736.41;4972357;28;20031;-78
2022/06/04 02:32:06;;;;;;;15.85;10.35;;;;;;;8.87;100.00;154756.94;4947240;28;20031;-77
2022/06/04 02:34:57;;;;;;;15.65;9.77;;;;;;;8.92;100.00;154769.72;4932541;28;20042;-78
2022/06/04 02:37:49;;;;;;;14.35;9.65;;;;;;;8.96;100.00;154778.69;4970801;28;20153;-78
2022/06/04 02:40:24;;;;;;;18.15;10.52;;;;;;;8.95;100.00;154776.16;4956777;28;20050;-78
2022/06/04 02:43:15;;;;;;;19.42;10.10;;;;;;;8.93;100.00;154772.28;4967408;28;20049;-77
2022/06/04 02:45:48;;;;;;;14.73;11.20;;;;;;;8.95;100.00;154776.16;4947300;28;20039;-79
2022/06/04 02:48:30;;;;;;;17.30;11.57;;;;;;;8.91;100.00;154767.19;4971833;28;20076;-79
2022/06/04 02:51:05;;;;;;;15.57;11.97;;;;;;;9.02;100.00;154794.06;4972199;28;20635;-79
2022/06/04 02:53:33;;;;;;;19.35;11.85;;;;;;;9.03;100.00;154796.63;4975609;28;20031;-77
2022/06/04 02:56:17;;;;;;;18.00;12.27;;;;;;;9.00;100.00;154787.66;4975201;28;20035;-77
2022/06/04 02:58:44;;;;;;;17.83;11.43;;;;;;;8.92;100.00;154768.44;5004114;23;20051;-83
2022/06/04 03:01:11;;;;;;;19.98;12.32;;;;;;;8.93;100.00;154772.28;4951918;28;20053;-84
2022/06/04 03:03:37;;;;;;;23.42;13.35;;;;;;;8.98;100.00;154782.53;4961095;28;20041;-84
2022/06/04 03:06:06;;;;;;;17.02;12.68;;;;;;;8.96;100.00;154779.97;4957285;28;20034;-83
2022/06/04 03:08:36;;;;;;;18.98;12.32;;;;;;;9.01;100.00;154790.25;4980810;28;20061;-84
2022/06/04 03:11:01;;;;;;;19.70;12.32;;;;;;;8.98;100.00;154782.53;4952120;28;20803;-83
2022/06/04 03:13:27;;;;;;;19.95;12.32;;;;;;;9.00;100.00;154787.66;4975487;28;20073;-82
2022/06/04 03:15:53;;;;;;;18.20;13.38;;;;;;;9.02;100.00;154792.78;4961006;28;20041;-84
2022/06/04 03:18:19;;;;;;;21.55;13.15;;;;;;;8.99;100.00;154785.13;4935798;28;20023;-84
2022/06/04 03:20:45;;;;;;;21.65;13.80;;;;;;;8.99;100.00;154785.13;4968243;28;20376;-81
2022/06/04 03:23:11;;;;;;;20.60;12.82;;;;;;;9.01;100.00;154791.53;4942557;28;20038;-84
2022/06/04 03:25:41;;;;;;;24.13;14.40;;;;;;;9.01;100.00;154790.25;4982408;28;20038;-83
2022/06/04 03:28:07;;;;;;;23.60;14.05;;;;;;;9.07;100.00;154805.63;4966236;28;20039;-83
2022/06/04 03:30:34;;;;;;;22.48;13.82;;;;;;;9.05;100.00;154800.50;4967368;28;20050;-83
2022/06/04 03:33:00;;;;;;;20.85;13.80;;;;;;;9.11;100.00;154815.88;4948713;28;20026;-83
2022/06/04 03:35:26;;;;;;;17.75;12.88;;;;;;;9.15;100.00;154827.44;4967140;28;20393;-80
2022/06/04 03:37:52;;;;;;;20.25;14.05;;;;;;;9.10;100.00;154814.59;4966871;28;20029;-83
2022/06/04 03:40:18;;;;;;;21.95;13.98;;;;;;;9.09;100.00;154810.75;4986407;28;20404;-82
2022/06/04 03:42:43;;;;;;;23.60;13.77;;;;;;;9.03;100.00;154795.38;4961990;28;20026;-81
2022/06/04 03:45:11;;;;;;;19.58;13.90;;;;;;;9.08;100.00;154808.16;4938759;28;20519;-81
2022/06/04 03:47:37;;;;;;;22.45;14.27;;;;;;;9.11;100.00;154815.88;4968794;28;20037;-83
2022/06/04 03:50:12;;;;;;;22.17;15.27;;;;;;;9.12;100.00;154818.44;4962983;28;20041;-82
2022/06/04 03:52:38;;;;;;;23.83;15.00;;;;;;;9.15;100.00;154826.09;4977094;28;20041;-82
2022/06/04 03:55:05;;;;;;;24.27;16.25;;;;;;;9.13;100.00;154820.97;4934187;28;20410;-82
2022/06/04 04:00:13;;;;;;;25.13;15.90;;;;;;;9.28;100.00;154858.16;4968095;28;20038;-82
2022/06/04 04:02:41;;;;;;;21.42;16.00;;;;;;;9.31;100.00;154865.88;4967297;28;20051;-81
2022/06/04 04:05:08;;;;;;;25.80;16.17;;;;;;;9.31;100.00;154867.13;4972083;28;20129;-83
2022/06/04 04:07:35;;;;;;;25.25;16.92;;;;;;;9.43;100.00;154896.59;4969021;28;20100;-81
2022/06/04 04:10:00;;;;;;;30.88;15.98;;;;;;;9.40;100.00;154887.63;4987551;28;20128;-82
2022/06/04 04:12:27;;;;;;;27.75;15.73;;;;;;;9.52;100.00;154918.41;4979564;28;20114;-83
2022/06/04 04:14:53;;;;;;;24.50;14.65;;;;;;;9.56;100.00;154928.66;4991112;28;20030;-82
2022/06/04 04:17:18;;;;;;;24.67;15.43;;;;;;;9.72;100.00;154969.72;4941038;28;20039;-82
2022/06/04 04:19:44;;;;;;;31.40;14.77;;;;;;;9.69;100.00;154960.75;4956241;28;20040;-83
2022/06/04 04:22:09;;;;;;;21.65;14.38;;;;;;;9.72;100.00;154969.72;4938566;28;20089;-83
2022/06/04 04:24:35;;;;;;;22.38;15.50;;;;;;;9.75;100.00;154977.38;4960843;28;20169;-81
2022/06/04 04:27:00;;;;;;;21.15;14.85;;;;;;;9.84;100.00;154999.19;4938839;28;20045;-84
2022/06/04 04:29:26;;;;;;;24.80;15.55;;;;;;;9.86;100.00;155004.31;4960451;28;20042;-82
2022/06/04 04:31:52;;;;;;;23.80;15.45;;;;;;;9.85;100.00;155001.78;4964265;28;20037;-82
2022/06/04 04:34:17;;;;;;;26.55;15.57;;;;;;;9.95;100.00;155026.13;4984343;28;20037;-82
2022/06/04 04:36:45;;;;;;;23.15;15.82;;;;;;;9.98;100.00;155033.81;4971748;28;20043;-82
2022/06/04 04:39:11;;;;;;;28.85;16.38;;;;;;;10.09;100.00;155060.75;4982076;28;20493;-83
2022/06/04 04:41:37;;;;;;;25.00;15.20;;;;;;;10.19;100.00;155086.44;4964960;28;20044;-84
2022/06/04 04:44:03;;;;;;;25.60;15.30;;;;;;;10.25;100.00;155101.81;4955619;28;20034;-81
2022/06/04 04:46:29;;;;;;;25.35;16.13;;;;;;;10.34;100.00;155123.69;4957212;28;20403;-83
2022/06/04 04:48:55;;;;;;;27.90;16.45;;;;;;;10.58;100.00;155183.94;4936994;28;20031;-82
2022/06/04 04:51:24;;;;;;;29.73;18.13;;;;;;;10.57;100.00;155180.06;4975879;28;20097;-82
2022/06/04 04:53:50;;;;;;;32.00;18.65;;;;;;;10.46;100.00;155154.44;4971277;28;20062;-82
2022/06/04 04:56:18;;;;;;;30.17;18.73;;;;;;;10.50;100.00;155163.44;4961262;28;20046;-83
2022/06/04 04:58:44;;;;;;;34.95;18.45;;;;;;;10.54;100.00;155172.41;4966613;28;20117;-84
2022/06/04 05:01:22;;;;;;;30.50;18.88;;;;;;;10.66;100.00;155203.19;4955348;28;20033;-82
2022/06/04 05:03:49;;;;;;;26.90;17.80;;;;;;;10.73;100.00;155219.88;4959362;28;20050;-82
2022/06/04 05:06:16;;;;;;;31.75;18.25;;;;;;;10.74;100.00;155223.72;4950963;28;20092;-83
2022/06/04 05:08:42;;;;;;;28.70;17.75;;;;;;;10.75;100.00;155226.28;4969320;28;20183;-84
2022/06/04 05:11:15;;;;;;;28.98;16.58;;;;;;;10.85;100.00;155251.97;4942088;28;20102;-86
2022/06/04 05:13:41;;;;;;;33.45;17.05;;;;;;;11.03;100.00;155296.84;4973376;28;20061;-86
2022/06/04 05:16:07;;;;;;;25.08;16.48;;;;;;;11.17;100.00;155330.22;4967181;28;20488;-83
2022/06/04 05:18:33;;;;;;;27.13;16.50;;;;;;;11.20;100.00;155339.19;4979041;28;20577;-83
2022/06/04 05:21:45;;;;;;;27.67;15.70;;;;;;;11.17;100.00;155331.53;4959376;28;20117;-83
2022/06/04 05:24:18;;;;;;;27.02;15.70;;;;;;;11.18;100.00;155334.06;4962145;28;20034;-84
2022/06/04 05:26:45;;;;;;;26.83;14.65;;;;;;;11.22;100.00;155344.34;4970975;28;20037;-83
2022/06/04 05:29:11;;;;;;;22.88;15.73;;;;;;;11.13;100.00;155321.22;4946831;28;20453;-85
2022/06/04 05:31:37;;;;;;;22.33;14.00;;;;;;;11.23;100.00;155346.91;4977781;28;20038;-85
2022/06/04 05:34:03;;;;;;;23.95;13.88;;;;;;;11.37;100.00;155380.28;4959727;28;20026;-80
2022/06/04 05:36:29;;;;;;;27.50;14.52;;;;;;;11.49;100.00;155412.38;4990820;28;20042;-83
2022/06/04 05:38:55;;;;;;;19.80;12.75;;;;;;;11.47;100.00;155407.25;4947707;28;20022;-85
2022/06/04 05:41:21;;;;;;;22.10;12.55;;;;;;;11.43;100.00;155397.00;4978068;28;20054;-83
2022/06/04 05:43:47;;;;;;;20.70;11.90;;;;;;;11.58;100.00;155432.91;4966774;28;20042;-84
2022/06/04 05:46:15;;;;;;;21.60;12.70;;;;;;;11.57;100.00;155430.38;4944410;28;20034;-86
2022/06/04 05:48:43;;;;;;;20.58;12.70;;;;;;;11.71;100.00;155466.28;4983009;28;20253;-85
2022/06/04 05:51:12;;;;;;;17.88;10.85;;;;;;;11.87;100.00;155507.38;4937058;28;20041;-84
2022/06/04 05:53:38;;;;;;;24.70;12.30;;;;;;;12.18;100.00;155584.47;4974947;28;20042;-81
2022/06/04 05:56:18;;;;;;;23.33;11.50;;;;;;;12.29;100.00;155610.19;4938888;28;20066;-83
2022/06/04 05:58:46;;;;;;;18.27;10.43;;;;;;;12.43;100.00;155646.09;4981041;28;20034;-82
2022/06/04 06:01:14;;;;;;;20.60;10.65;;;;;;;12.54;100.00;155673.09;4971222;28;20400;-83
2022/06/04 06:03:40;;;;;;;20.75;10.75;;;;;;;12.54;100.00;155674.38;4957898;28;20034;-82
2022/06/04 06:06:12;;;;;;;17.30;10.18;;;;;;;12.64;100.00;155698.81;4980443;28;20030;-83
2022/06/04 06:08:37;;;;;;;20.23;10.30;;;;;;;12.56;100.00;155678.22;4984719;28;20088;-84
2022/06/04 06:11:06;;;;;;;21.95;10.57;;;;;;;12.70;100.00;155712.94;5006222;28;20038;-84
2022/06/04 06:13:32;;;;;;;18.25;9.52;;;;;;;12.91;100.00;155765.59;4981131;28;20044;-82
2022/06/04 06:16:06;;;;;;;13.35;8.65;;;;;;;13.10;100.00;155813.16;4944966;28;20042;-80
2022/06/04 06:18:33;;;;;;;19.27;9.55;;;;;;;13.28;100.00;155858.09;4957058;28;20041;-82
2022/06/04 06:20:58;;;;;;;19.50;9.50;;;;;;;13.44;100.00;155900.56;4941135;28;20121;-81
2022/06/04 06:23:24;;;;;;;14.80;8.70;;;;;;;13.55;100.00;155927.56;4944636;28;20128;-82
2022/06/04 06:25:50;;;;;;;19.55;8.70;;;;;;;13.69;100.00;155962.25;4975023;28;20034;-82
2022/06/04 06:28:16;;;;;;;16.60;9.30;;;;;;;13.68;100.00;155958.44;4941851;28;20038;-81
2022/06/04 06:30:42;;;;;;;18.30;8.98;;;;;;;13.75;100.00;155976.38;4957033;28;20038;-83
2022/06/04 06:33:08;;;;;;;14.80;8.40;;;;;;;13.79;100.00;155986.72;4980905;28;20137;-84
2022/06/04 06:35:34;;;;;;;15.23;8.43;;;;;;;13.71;100.00;155967.44;4962272;28;20105;-81
2022/06/04 06:38:00;;;;;;;15.43;8.63;;;;;;;13.76;100.00;155978.97;4978286;28;20042;-84
2022/06/04 06:40:25;;;;;;;17.17;8.07;;;;;;;14.07;100.00;156056.09;4977694;28;20103;-85
2022/06/04 06:42:51;;;;;;;12.38;7.97;;;;;;;14.14;100.00;156074.09;4980629;28;20065;-83
2022/06/04 06:45:17;;;;;;;15.32;8.75;;;;;;;14.02;100.00;156044.56;4957964;28;20042;-86
2022/06/04 06:47:44;;;;;;;14.32;7.90;;;;;;;13.97;100.00;156031.69;4967122;28;20121;-83
2022/06/04 06:50:12;;;;;;;15.38;7.93;;;;;;;13.98;100.00;156035.56;4965753;28;20045;-82
2022/06/04 06:52:38;;;;;;;11.40;7.28;;;;;;;13.98;100.00;156035.56;4973381;28;20045;-82
2022/06/04 06:55:04;;;;;;;14.73;7.65;;;;;;;14.07;100.00;156057.41;4978921;28;20034;-83
2022/06/04 06:57:29;;;;;;;18.13;8.00;;;;;;;14.25;100.00;156101.13;4948953;28;20030;-82
2022/06/04 06:59:56;;;;;;;13.80;7.15;;;;;;;14.51;100.00;156166.72;4970296;28;20101;-83
2022/06/04 07:02:22;;;;;;;13.55;6.50;;;;;;;14.76;100.00;156229.78;4979902;28;20054;-84
2022/06/04 07:04:47;;;;;;;10.68;7.35;;;;;;;14.86;98.15;156255.53;4970137;28;20031;-85
2022/06/04 07:07:13;;;;;;;17.38;7.85;;;;;;;15.02;98.11;156295.38;4942411;28;20299;-86
2022/06/04 07:09:41;;;;;;;10.40;6.80;;;;;;;14.86;98.75;156254.19;4999826;28;20046;-82
2022/06/04 07:12:09;;;;;;;13.48;7.20;;;;;;;14.67;99.61;156207.88;4954040;28;20129;-83
2022/06/04 07:14:34;;;;;;;12.60;7.25;;;;;;;14.38;99.66;156135.84;4962341;28;20592;-80
2022/06/04 07:17:00;;;;;;;10.90;7.07;;;;;;;14.17;100.00;156081.84;4935431;28;20061;-81
2022/06/04 07:19:27;;;;;;;10.35;6.65;;;;;;;14.11;100.00;156066.38;4946019;28;20069;-83
2022/06/04 07:21:54;;;;;;;17.40;7.13;;;;;;;14.05;100.00;156050.97;4970600;28;20031;-83
2022/06/04 07:24:20;;;;;;;12.40;6.55;;;;;;;14.15;100.00;156077.97;4937701;28;20066;-80
2022/06/04 07:26:46;;;;;;;13.80;6.65;;;;;;;14.27;100.00;156106.28;4953536;28;20045;-80
2022/06/04 07:29:12;;;;;;;10.70;6.85;;;;;;;14.57;99.76;156182.19;4967201;28;20030;-83
2022/06/04 07:31:38;;;;;;;16.80;6.65;;;;;;;14.55;98.33;156178.28;4973419;28;20046;-82
2022/06/04 07:34:04;;;;;;;11.63;6.22;;;;;;;14.48;98.93;156158.97;4978365;28;20092;-83
2022/06/04 07:36:36;;;;;;;10.55;6.88;;;;;;;14.68;98.33;156209.22;4959570;28;20034;-83
2022/06/04 07:39:05;;;;;;;12.07;6.63;;;;;;;14.86;98.42;156255.53;4972393;28;20819;-81
2022/06/04 07:41:34;;;;;;;15.85;6.55;;;;;;;14.91;96.37;156267.06;4961686;28;20069;-83
2022/06/04 07:44:00;;;;;;;12.70;6.25;;;;;;;15.16;96.45;156331.41;4964998;28;20031;-81
2022/06/04 07:46:28;;;;;;;13.20;6.18;;;;;;;15.29;95.67;156363.53;4948886;28;20034;-82
2022/06/04 07:49:00;;;;;;;13.15;6.55;;;;;;;15.35;94.71;156377.69;4970574;28;20031;-82
2022/06/04 07:51:27;;;;;;;13.20;6.07;;;;;;;15.70;95.11;156465.22;4968467;28;20034;-83
2022/06/04 07:53:53;;;;;;;10.65;5.90;;;;;;;15.72;93.39;156470.38;4965577;28;20040;-83
2022/06/04 07:56:19;;;;;;;15.30;5.90;;;;;;;15.94;91.32;156525.78;4970030;28;20531;-83
2022/06/04 07:58:46;;;;;;;10.18;5.57;;;;;;;16.12;90.80;156572.13;4977423;28;20037;-81
2022/06/04 08:01:15;;;;;;;13.27;5.32;;;;;;;16.27;89.35;156609.41;4941914;28;20038;-82
2022/06/04 08:03:43;;;;;;;10.40;5.47;;;;;;;16.57;90.08;156682.81;4947821;28;20046;-81
2022/06/04 08:06:10;;;;;;;11.52;6.38;;;;;;;16.69;86.10;156715.03;4973209;28;20508;-80
2022/06/04 08:08:37;;;;;;;11.65;5.90;;;;;;;16.78;88.71;156735.63;4974578;28;20041;-84
2022/06/04 08:11:30;;;;;;;8.55;5.68;;;;;;;16.98;87.82;156785.91;4959294;28;20128;-83
2022/06/04 08:13:49;;;;;;;10.40;5.43;;;;;;;17.12;83.22;156823.25;4964730;28;20035;-77
2022/06/04 08:16:14;;;;;;;6.40;4.72;;;;;;;16.83;88.19;156749.81;4981810;28;20035;-82
2022/06/04 08:18:40;;;;;;;11.38;5.13;;;;;;;16.87;91.56;156758.84;4948177;28;20041;-80
2022/06/04 08:21:06;;;;;;;8.73;5.13;;;;;;;17.04;82.23;156802.63;4941892;28;20401;-81
2022/06/04 08:23:32;;;;;;;12.23;4.82;;;;;;;17.12;88.42;156821.94;4944876;28;20045;-82
2022/06/04 08:25:59;;;;;;;6.75;4.53;;;;;;;17.41;82.10;156894.09;4978015;28;20061;-81
2022/06/04 08:28:25;;;;;;;8.27;4.32;;;;;;;17.46;78.54;156906.97;4962006;28;20034;-80
2022/06/04 08:31:01;;;;;;;8.43;4.60;;;;;;;17.40;78.67;156892.78;4957321;28;20663;-83
2022/06/04 08:33:26;;;;;;;8.50;4.93;;;;;;;17.40;78.75;156891.50;4939046;28;20042;-82
2022/06/04 08:35:52;;;;;;;7.53;4.53;;;;;;;17.65;78.47;156954.63;4980037;28;20034;-84
2022/06/04 08:38:18;;;;;;;7.70;4.53;;;;;;;17.63;77.23;156950.78;4974545;28;20229;-84
2022/06/04 08:40:59;;;;;;;10.35;4.45;;;;;;;17.86;75.82;157007.53;4965607;28;20046;-84
2022/06/04 08:43:40;;;;;;;9.82;4.30;;;;;;;17.80;75.28;156993.31;4965617;28;20034;-84
2022/06/04 08:46:16;;;;;;;9.10;4.40;;;;;;;17.96;77.84;157032.00;4966638;28;20192;-82
2022/06/04 08:48:43;;;;;;;6.93;4.00;;;;;;;18.10;72.95;157068.06;4962186;28;20043;-84
2022/06/04 08:51:22;;;;;;;10.32;3.92;;;;;;;18.30;73.51;157118.34;4980717;28;20512;-83
2022/06/04 08:53:56;;;;;;;8.65;4.00;;;;;;;18.53;73.05;157175.06;4943887;28;20104;-81
2022/06/04 08:59:49;;;;;;;8.30;4.30;;;;;;;18.86;70.32;157258.91;4964310;23;20475;-81
2022/06/04 09:02:22;;;;;;;5.33;4.20;;;;;;;18.74;72.48;157227.91;4956876;28;20065;-79
2022/06/04 09:05:24;;;;;;;6.47;3.72;;;;;;;18.67;71.77;157212.44;4964923;28;20091;-84
2022/06/04 09:07:54;;;;;;;8.60;3.97;;;;;;;18.94;74.25;157279.53;4959518;28;20131;-81
2022/06/04 09:10:25;;;;;;;7.05;4.05;;;;;;;19.14;72.79;157328.56;4967225;28;20066;-82
2022/06/04 09:12:56;;;;;;;9.23;4.82;;;;;;;18.66;69.60;157208.56;4933688;28;20042;-81
2022/06/04 09:15:29;;;;;;;8.40;4.20;;;;;;;18.75;69.74;157230.50;4943444;28;20532;-82
2022/06/04 09:17:57;;;;;;;7.80;4.40;;;;;;;18.88;67.32;157262.78;4968107;28;20340;-83
2022/06/04 09:20:37;;;;;;;7.22;4.32;;;;;;;18.77;71.13;157235.66;4949821;29;20035;-80
2022/06/04 09:23:04;;;;;;;5.78;3.72;;;;;;;19.12;70.33;157324.69;4951212;28;20142;-81
2022/06/04 09:25:55;;;;;;;7.70;3.70;;;;;;;19.27;67.23;157362.09;4934201;28;20044;-81
2022/06/04 09:28:49;;;;;;;3.95;3.33;;;;;;;19.35;67.67;157382.69;4945049;28;20043;-83
2022/06/04 09:31:41;;;;;;;9.02;3.85;;;;;;;19.39;68.49;157393.00;4946085;29;20039;-81
2022/06/04 09:34:14;;;;;;;6.50;3.80;;;;;;;19.50;68.48;157418.81;4942709;29;20107;-83
2022/06/04 09:36:44;;;;;;;6.13;3.45;;;;;;;19.60;67.83;157445.88;4939715;28;20373;-79
2022/06/04 09:39:24;;;;;;;7.88;3.53;;;;;;;19.80;69.13;157494.97;4934506;28;20037;-81
2022/06/04 09:42:21;;;;;;;6.35;3.58;;;;;;;20.02;64.47;157551.72;4951850;28;20137;-80
2022/06/04 09:44:56;;;;;;;9.27;3.95;;;;;;;19.97;67.11;157537.53;4925851;28;20391;-80
2022/06/04 09:47:31;;;;;;;6.07;2.85;;;;;;;20.32;67.34;157625.25;4932484;28;20043;-81
2022/06/04 09:50:02;;;;;;;6.75;3.35;;;;;;;20.16;63.63;157585.28;4943476;29;20095;-80
2022/06/04 09:52:41;;;;;;;3.60;2.97;;;;;;;20.10;61.90;157571.09;4921816;29;20126;-82
2022/06/04 09:55:15;;;;;;;5.35;2.70;;;;;;;20.31;66.13;157622.69;4925265;29;20047;-80
2022/06/04 09:57:42;;;;;;;5.20;3.00;;;;;;;20.30;66.07;157620.09;4954904;28;20043;-80
2022/06/04 10:00:22;;;;;;;4.43;2.42;;;;;;;20.48;64.54;157666.56;4943446;29;20046;-80
2022/06/04 10:03:00;;;;;;;4.40;2.35;;;;;;;20.75;59.36;157733.69;4943595;28;20040;-81
2022/06/04 10:05:30;;;;;;;6.40;2.80;;;;;;;20.73;59.55;157728.53;4933861;29;20074;-82
2022/06/04 10:07:56;;;;;;;8.88;3.30;;;;;;;20.29;59.18;157617.53;4948534;28;20042;-82
2022/06/04 10:10:37;;;;;;;5.57;2.85;;;;;;;20.32;62.11;157626.53;4948892;29;20958;-81
2022/06/04 10:16:19;;;;;;;4.05;2.53;;;;;;;20.73;61.43;157728.53;4944435;29;20102;-80
2022/06/04 10:19:18;;;;;;;5.47;2.80;;;;;;;20.67;59.64;157714.34;4937964;28;20051;-83
2022/06/04 10:21:47;;;;;;;6.88;3.67;;;;;;;20.51;59.57;157673.00;4940158;28;20035;-81
2022/06/04 10:24:20;;;;;;;7.70;2.90;;;;;;;20.98;65.92;157791.75;4939662;29;20039;-82
2022/06/04 10:27:04;;;;;;;4.40;2.83;;;;;;;21.24;60.22;157857.59;4935594;28;20133;-81
2022/06/04 10:29:59;;;;;;;8.07;2.92;;;;;;;21.28;58.76;157866.66;4936478;28;20095;-81
2022/06/04 10:32:40;;;;;;;4.50;3.03;;;;;;;21.09;60.76;157820.16;4939510;29;20038;-81
2022/06/04 10:35:20;;;;;;;5.15;3.22;;;;;;;20.67;59.85;157714.34;4942882;28;20035;-81
2022/06/04 10:38:23;;;;;;;4.68;3.13;;;;;;;21.07;64.03;157815.00;4963506;28;20041;-82
2022/06/04 10:41:14;;;;;;;5.43;2.75;;;;;;;21.43;58.83;157905.38;4947686;28;20065;-82
2022/06/04 10:44:06;;;;;;;5.50;2.42;;;;;;;21.45;57.67;157910.56;4951860;28;20119;-82
2022/06/04 10:46:52;;;;;;;4.47;2.60;;;;;;;21.10;54.05;157822.75;4933636;28;20056;-82
2022/06/04 10:49:31;;;;;;;4.28;2.60;;;;;;;21.15;53.91;157834.38;4949137;29;20193;-83
2022/06/04 10:52:15;;;;;;;4.78;2.25;;;;;;;21.08;53.50;157817.59;4941792;29;20387;-82
2022/06/04 10:55:15;;;;;;;5.03;2.33;;;;;;;21.67;57.60;157966.09;4951210;28;20069;-80
2022/06/04 10:58:02;;;;;;;6.03;2.47;;;;;;;21.63;54.89;157954.50;4941145;28;20035;-82
2022/06/04 11:00:35;;;;;;;5.60;2.50;;;;;;;21.66;53.94;157962.22;4941512;29;20039;-80
2022/06/04 11:03:05;;;;;;;7.50;2.88;;;;;;;21.67;56.73;157964.84;4966731;28;20034;-81
2022/06/04 11:05:47;;;;;;;4.18;2.33;;;;;;;22.00;52.67;158048.78;4962155;28;20066;-82
2022/06/04 11:08:26;;;;;;;4.40;2.90;;;;;;;21.67;54.43;157966.09;4946143;28;20039;-82
2022/06/04 11:10:58;;;;;;;13.88;2.80;;;;;;;21.93;56.08;158031.97;4970906;28;20498;-81
2022/06/04 11:13:27;;;;;;;;;;;;;;;21.97;54.45;158042.28;4938010;29;20046;-81
2022/06/04 11:16:27;;;;;;;4.05;2.63;;;;;;;21.78;53.22;157994.53;4945219;29;20296;-80
2022/06/04 11:18:59;;;;;;;5.15;2.70;;;;;;;21.83;56.21;158006.16;4964400;28;20062;-83
2022/06/04 11:21:51;;;;;;;4.97;2.88;;;;;;;22.05;55.25;158061.66;4941190;29;20043;-81
2022/06/04 11:24:29;;;;;;;5.70;2.47;;;;;;;22.31;55.37;158127.59;4950163;28;20050;-82
2022/06/04 11:27:00;;;;;;;4.75;2.22;;;;;;;22.49;50.04;158171.50;4958345;28;20289;-82
2022/06/04 11:29:26;;;;;;;2.73;2.20;;;;;;;22.52;47.76;158179.25;4922662;29;20047;-82
2022/06/04 11:32:03;;;;;;;3.05;2.15;;;;;;;22.34;50.14;158135.34;4934430;28;20333;-79
2022/06/04 11:34:50;;;;;;;3.53;2.30;;;;;;;22.26;56.96;158114.66;4939686;28;20040;-79
2022/06/04 11:37:31;;;;;;;4.80;2.53;;;;;;;22.47;52.90;158167.66;4964972;28;20047;-83
2022/06/04 11:39:59;;;;;;;5.38;2.67;;;;;;;22.40;50.74;158149.56;4927027;28;20039;-84
2022/06/04 11:42:59;;;;;;;3.58;2.60;;;;;;;22.23;52.58;158105.59;4935604;29;20043;-83
2022/06/04 11:45:50;;;;;;;6.38;2.63;;;;;;;21.78;51.28;157994.53;4943396;29;20039;-82
2022/06/04 11:48:29;;;;;;;3.05;2.20;;;;;;;22.33;50.89;158132.75;4944178;28;20130;-81
2022/06/04 11:51:17;;;;;;;5.82;2.65;;;;;;;22.57;47.98;158190.91;4940701;29;20070;-81
2022/06/04 11:54:09;;;;;;;3.97;2.17;;;;;;;22.69;51.56;158223.16;4965060;28;20486;-80